Fairlee, VT (05045)

12:45 AM EDT on September 05, 2015 (GMT -0400)
Bill's Place | | Change Station
CLOSE
Current Station
Personal Weather Station
Location: Orford, NH
Elevation: 407 ft
Nearby Weather Stations

Elev 407 ft 43.90 °N, 72.14 °W | Updated 37 seconds ago

Clear
Clear
56.3 °F
Feels Like 56.3 °F
N
0.0
Wind Variable Wind from WSW
Gusts 0.0 mph

Today
High -- | Low -- °F
--% Chance of Precip.
Yesterday
High -- | Low -- °F
Precip. -- in
6:16 AM 7:17 PM
Waning Gibbous, 52% visible
Pressure 30.25 in
Visibility 9.0 miles
Clouds Clear
Dew Point 50 °F
Humidity 78%
Rainfall 0.00 in
Snow Depth Not available.
UV 0 out of 12
Pollen 7.90 out of 12
Air Quality Not available.
Flu Activity Not available.
METAR KLEB 050353Z AUTO 18003KT 9SM CLR 13/12 A3026 RMK AO2 SLP241 T01280117
Pressure 30.25 in
Visibility 9.0 miles
Clouds Clear
Dew Point 50 °F
Humidity 78%
Rainfall 0.00 in
Snow Depth Not available.
UV 0 out of 12
Pollen 7.90 out of 12
Air Quality Not available.
Flu Activity Not available.
METAR KLEB 050353Z AUTO 18003KT 9SM CLR 13/12 A3026 RMK AO2 SLP241 T01280117

10-Day Weather Forecast

×

Almanac

Astronomy

Sep. 05, 2015 Rise Set
Actual Time
Civil Twilight
Nautical Twilight
Astronomical Twilight
Moon
Length of Visible Light
Length of Day
Tomorrow will be .
, % of the Moon is Illuminated

Today's Extremes

State Highs State Lows

Community

WunderPhotos

Upload Photos

1,852,426 photos uploaded!

WunderBlogs® & News

Nearby

Air Quality

  Air Quality AQ Index Pollutant
Not available.

Snow Depth

Station Depth Elevation

Earthquake Activity

City Distance Mag. Time & Date
Minimum magnitude displayed is 2.5.

Coastal Water Temperatures

Place Temperature

Stations

Nearby Weather Stations

Station Location Temp. Windchill Dew Point Humidity Wind Precip. Elev Updated Type